FAMM/MBD METAR and TAF weather

Enter ICAO airport designator
Station Type Date Time Source
FAMM METAR 2022/06/30 17:00 UTC NOAA

FAMM 301700Z 04005KT CAVOK 09/02 Q1029 NOSIG


Station Type Date Time Source
FAMM Decoded METAR 2022/06/30 17:00 UTC NOAA

Mafikeng Intl. Ad, South Africa (FAMM) 25-47S 025-32E 1300M
Jun 30, 2022 - 01:00 PM EDT / 2022.06.30 1700 UTC
Wind: from the NE (040 degrees) at 6 MPH (5 KT):0
Visibility: greater than 7 mile(s):0
Temperature: 48 F (9 C)
Dew Point: 35 F (2 C)
Relative Humidity: 61%
Pressure (altimeter): 30.39 in. Hg (1029 hPa)
ob: FAMM 301700Z 04005KT CAVOK 09/02 Q1029 NOSIG
cycle: 17

Station Type Date Time Source
FAMM TAF 2021/06/04 04:45 UTC NOAA

TAF TAF FAMM 040440Z 0404/0418 VRB03KT CAVOK TX20/0412Z TN02/0405Z
FM040800 05008KT 9999 SCT040
BECMG 0410/0412 VRB03KT CAVOK

Example: see airport list